Time;durP1;ratioP1;P1;durP2;ratioP2;P2;SDS_P1;SDS_P2;PMS_P1;PMS_P2;Temp;Humidity;BMP_temperature;BMP_pressure;BME280_temperature;BME280_humidity;BME280_pressure;Samples;Min_cycle;Max_cycle;Signal;HPM_P1;HPM_P2
2023/07/06 00:02:03;;;;;;;1.90;1.53;;;;;;;14.96;82.53;100735.34;4987780;28;20807;-69
2023/07/06 00:04:29;;;;;;;2.13;1.60;;;;;;;14.95;82.60;100733.63;4987783;28;20291;-70
2023/07/06 00:06:56;;;;;;;3.57;1.80;;;;;;;14.93;82.38;100741.78;4989037;28;20216;-71
2023/07/06 00:09:23;;;;;;;2.50;1.93;;;;;;;14.92;82.32;100734.72;4984658;28;20264;-71
2023/07/06 00:11:52;;;;;;;1.70;1.60;;;;;;;14.90;81.96;100738.50;4989568;28;20224;-71
2023/07/06 00:14:18;;;;;;;3.07;1.70;;;;;;;14.89;81.94;100737.63;4984860;28;20211;-72
2023/07/06 00:16:47;;;;;;;2.93;2.07;;;;;;;14.89;82.26;100744.84;4987478;28;20562;-71
2023/07/06 00:19:17;;;;;;;3.30;2.10;;;;;;;14.88;82.23;100743.97;4985341;28;20200;-71
2023/07/06 00:21:44;;;;;;;1.90;1.70;;;;;;;14.87;82.12;100741.41;4987652;28;20223;-71
2023/07/06 00:24:10;;;;;;;2.57;2.10;;;;;;;14.85;82.39;100740.72;4984158;28;20204;-71
2023/07/06 00:26:37;;;;;;;2.90;2.00;;;;;;;14.85;82.65;100738.03;4985937;28;20258;-71
2023/07/06 00:29:05;;;;;;;2.17;1.93;;;;;;;14.83;82.69;100735.47;4984254;28;20239;-71
2023/07/06 00:31:50;;;;;;;2.27;1.90;;;;;;;14.81;82.73;100741.94;4988124;28;20231;-72
2023/07/06 00:34:18;;;;;;;5.40;1.90;;;;;;;14.78;82.69;100747.53;4986067;28;20765;-71
2023/07/06 00:36:46;;;;;;;2.80;2.37;;;;;;;14.77;83.05;100746.66;4984452;28;21302;-71
2023/07/06 00:39:13;;;;;;;3.20;1.70;;;;;;;14.73;83.21;100752.38;4984565;28;20232;-71
2023/07/06 00:41:40;;;;;;;2.60;1.77;;;;;;;14.71;83.43;100754.34;4984968;28;20717;-70
2023/07/06 00:44:39;;;;;;;2.13;1.90;;;;;;;14.70;83.13;100755.31;4982850;28;20213;-70
2023/07/06 00:47:09;;;;;;;2.43;2.03;;;;;;;14.68;83.69;100752.78;4984752;28;20303;-71
2023/07/06 00:49:36;;;;;;;3.13;2.50;;;;;;;14.65;83.67;100749.47;4984691;28;20238;-72
2023/07/06 00:52:02;;;;;;;4.53;2.70;;;;;;;14.63;84.06;100751.41;4981442;28;20739;-72
2023/07/06 00:54:29;;;;;;;3.10;2.37;;;;;;;14.65;84.09;100754.84;4984994;28;20207;-71
2023/07/06 00:56:57;;;;;;;2.80;2.50;;;;;;;14.62;84.41;100755.94;4983574;28;20262;-71
2023/07/06 00:59:26;;;;;;;3.53;2.70;;;;;;;14.63;84.50;100760.31;4981347;28;20742;-71
2023/07/06 01:01:53;;;;;;;3.63;2.83;;;;;;;14.64;84.95;100764.72;4987208;28;20239;-73
2023/07/06 01:04:22;;;;;;;5.60;3.00;;;;;;;14.63;85.23;100754.09;4977072;28;20243;-71
2023/07/06 01:06:51;;;;;;;3.20;2.83;;;;;;;14.65;84.94;100765.56;4985037;28;20330;-72
2023/07/06 01:09:18;;;;;;;4.00;3.50;;;;;;;14.63;85.73;100767.50;4984069;28;20243;-71
2023/07/06 01:11:45;;;;;;;3.83;3.00;;;;;;;14.65;85.89;100761.06;4981889;28;20631;-71
2023/07/06 01:14:13;;;;;;;5.33;3.73;;;;;;;14.65;86.24;100754.84;4986952;28;20239;-72
2023/07/06 01:16:43;;;;;;;4.63;3.20;;;;;;;14.64;86.20;100756.66;4986113;28;20231;-72
2023/07/06 01:19:29;;;;;;;3.80;2.57;;;;;;;14.65;86.08;100752.16;4985428;28;20204;-69
2023/07/06 01:22:04;;;;;;;4.30;2.80;;;;;;;14.66;86.52;100757.41;4984382;28;20736;-73
2023/07/06 01:24:53;;;;;;;3.63;2.93;;;;;;;14.67;86.24;100758.25;4983591;28;20243;-71
2023/07/06 01:27:38;;;;;;;4.33;2.93;;;;;;;14.68;86.67;100762.66;4986313;28;20215;-73
2023/07/06 01:30:31;;;;;;;3.00;2.70;;;;;;;14.66;86.68;100759.22;4982361;28;20230;-71
2023/07/06 01:33:04;;;;;;;3.10;2.63;;;;;;;14.66;87.02;100760.09;4983105;28;20294;-71
2023/07/06 01:35:47;;;;;;;5.43;2.93;;;;;;;14.69;86.74;100759.00;4980372;28;20199;-71
2023/07/06 01:38:13;;;;;;;3.13;2.70;;;;;;;14.69;87.40;100761.69;4986529;28;20222;-71
2023/07/06 01:40:42;;;;;;;4.67;3.37;;;;;;;14.69;87.61;100765.19;4984355;28;20230;-71
2023/07/06 01:43:10;;;;;;;4.37;3.37;;;;;;;14.69;87.65;100765.19;4986334;28;20223;-71
2023/07/06 01:45:37;;;;;;;5.00;4.10;;;;;;;14.69;87.28;100767.03;4991547;28;20208;-71
2023/07/06 01:48:10;;;;;;;4.73;3.27;;;;;;;14.70;87.25;100755.31;4985754;28;20677;-71
2023/07/06 01:50:45;;;;;;;5.07;3.20;;;;;;;14.69;87.63;100757.13;4986174;28;20685;-70
2023/07/06 01:53:18;;;;;;;4.07;3.57;;;;;;;14.70;87.67;100755.31;4980851;28;20226;-73
2023/07/06 01:55:48;;;;;;;5.60;3.60;;;;;;;14.69;87.72;100754.44;4985857;28;20204;-71
2023/07/06 01:58:23;;;;;;;4.37;3.97;;;;;;;14.68;87.91;100759.97;4983546;28;20701;-72
2023/07/06 02:00:55;;;;;;;5.27;4.10;;;;;;;14.68;87.95;100765.31;4986950;28;20289;-72
2023/07/06 02:03:25;;;;;;;5.53;3.93;;;;;;;14.71;87.98;100775.78;4985454;28;20208;-71
2023/07/06 02:05:52;;;;;;;4.50;3.70;;;;;;;14.70;87.66;100768.72;4987208;28;20242;-71
2023/07/06 02:08:20;;;;;;;5.97;4.17;;;;;;;14.70;88.20;100772.25;4985760;28;20215;-71
2023/07/06 02:10:46;;;;;;;4.83;3.97;;;;;;;14.69;87.91;100775.91;4983964;28;20235;-71
2023/07/06 02:13:13;;;;;;;5.17;4.67;;;;;;;14.69;88.04;100780.44;4981320;28;20236;-72
2023/07/06 02:15:40;;;;;;;5.30;4.30;;;;;;;14.69;88.43;100775.91;4984811;28;20208;-71
2023/07/06 02:18:07;;;;;;;5.97;4.80;;;;;;;14.68;88.30;100776.91;4980973;28;20727;-72
2023/07/06 02:20:35;;;;;;;5.03;4.43;;;;;;;14.69;88.41;100780.44;4984127;28;20225;-71
2023/07/06 02:23:01;;;;;;;6.63;5.37;;;;;;;14.68;88.32;100781.41;4983888;28;20231;-72
2023/07/06 02:25:28;;;;;;;5.37;4.60;;;;;;;14.70;88.77;100782.13;4982888;28;20208;-72
2023/07/06 02:27:54;;;;;;;5.33;4.73;;;;;;;14.71;88.84;100768.59;4980897;28;20228;-72
2023/07/06 02:30:21;;;;;;;6.07;5.47;;;;;;;14.70;88.75;100774.94;4985795;28;20229;-71
2023/07/06 02:32:47;;;;;;;6.73;5.20;;;;;;;14.70;89.11;100772.25;4982905;28;20211;-71
2023/07/06 02:35:14;;;;;;;6.33;5.60;;;;;;;14.71;89.22;100773.09;4985577;28;20212;-71
2023/07/06 02:37:41;;;;;;;5.63;4.97;;;;;;;14.68;89.21;100768.00;4978039;28;20212;-73
2023/07/06 02:40:10;;;;;;;6.13;4.93;;;;;;;14.69;89.14;100772.41;4986483;28;20767;-71
2023/07/06 02:42:37;;;;;;;7.67;4.77;;;;;;;14.66;88.87;100768.13;4986402;28;20203;-71
2023/07/06 02:45:05;;;;;;;7.10;4.40;;;;;;;14.66;88.97;100772.63;4986574;28;20212;-71
2023/07/06 02:47:31;;;;;;;5.33;4.57;;;;;;;14.66;88.44;100764.59;4983569;28;20203;-71
2023/07/06 02:49:58;;;;;;;6.83;4.67;;;;;;;14.65;88.36;100769.09;4986024;28;20901;-71
2023/07/06 02:52:25;;;;;;;5.23;4.73;;;;;;;14.66;88.08;100775.31;4986866;28;20290;-72
2023/07/06 02:54:53;;;;;;;5.60;4.93;;;;;;;14.66;88.09;100767.28;4988369;28;20760;-72
2023/07/06 02:57:20;;;;;;;6.80;5.50;;;;;;;14.65;87.75;100776.28;4986657;28;20251;-71
2023/07/06 02:59:46;;;;;;;6.10;5.40;;;;;;;14.65;87.74;100773.59;4985266;28;20198;-71
2023/07/06 03:02:13;;;;;;;7.23;6.20;;;;;;;14.66;87.94;100780.66;4977010;28;20233;-72
2023/07/06 03:04:39;;;;;;;7.03;6.37;;;;;;;14.65;87.86;100774.47;4985338;28;20228;-71
2023/07/06 03:07:06;;;;;;;7.53;6.47;;;;;;;14.66;87.85;100783.34;4983441;28;20209;-70
2023/07/06 03:09:33;;;;;;;9.50;7.90;;;;;;;14.65;87.82;100781.66;4984588;28;20237;-72
2023/07/06 03:12:05;;;;;;;9.90;8.07;;;;;;;14.68;88.05;100784.09;4986957;28;20851;-71
2023/07/06 03:14:32;;;;;;;9.37;6.97;;;;;;;14.66;88.06;100786.88;4989577;28;20303;-71
2023/07/06 03:16:59;;;;;;;10.17;9.07;;;;;;;14.66;88.26;100791.41;4988566;28;20208;-70
2023/07/06 03:19:25;;;;;;;10.27;8.63;;;;;;;14.64;88.31;100790.66;4986357;28;20199;-72
2023/07/06 03:21:58;;;;;;;11.07;7.97;;;;;;;14.65;88.81;100789.69;4984907;28;20232;-72
2023/07/06 03:24:25;;;;;;;9.83;7.97;;;;;;;14.64;88.68;100794.19;4987587;28;20295;-72
2023/07/06 03:26:52;;;;;;;12.67;8.47;;;;;;;14.64;88.40;100794.19;4986400;28;20207;-69
2023/07/06 03:29:21;;;;;;;9.80;8.80;;;;;;;14.64;88.57;100790.66;4985649;28;20200;-73
2023/07/06 03:31:48;;;;;;;8.80;7.83;;;;;;;14.62;89.29;100789.91;4985740;28;20227;-72
2023/07/06 03:34:14;;;;;;;9.77;8.77;;;;;;;14.61;89.21;100793.56;4985338;28;20204;-72
2023/07/06 03:36:41;;;;;;;10.80;8.60;;;;;;;14.61;89.26;100790.88;4983714;28;20215;-72
2023/07/06 03:39:12;;;;;;;10.10;9.03;;;;;;;14.59;89.40;100801.72;4985320;28;20219;-70
2023/07/06 03:41:38;;;;;;;9.40;8.50;;;;;;;14.57;89.82;100804.53;4979879;28;20795;-70
2023/07/06 03:44:05;;;;;;;12.40;8.53;;;;;;;14.57;89.71;100799.16;4981295;28;20867;-72
2023/07/06 03:46:34;;;;;;;10.20;9.10;;;;;;;14.55;90.35;100803.78;4984415;28;20216;-71
2023/07/06 03:49:00;;;;;;;12.53;9.20;;;;;;;14.55;90.55;100810.97;4982509;28;20206;-72
2023/07/06 03:51:27;;;;;;;13.23;9.23;;;;;;;14.53;90.34;100812.91;4977448;28;20232;-72
2023/07/06 03:53:53;;;;;;;10.40;8.63;;;;;;;14.52;90.61;100804.03;4982420;28;20233;-73
2023/07/06 03:56:27;;;;;;;10.13;9.13;;;;;;;14.53;90.62;100818.28;4983456;28;22088;-70
2023/07/06 03:58:56;;;;;;;10.50;8.30;;;;;;;14.53;90.99;100821.81;4986177;28;20215;-72
2023/07/06 04:01:23;;;;;;;9.77;8.80;;;;;;;14.53;90.75;100815.59;4987145;28;20242;-72
2023/07/06 04:03:52;;;;;;;13.00;9.03;;;;;;;14.49;91.44;100812.31;4988177;28;20219;-71
2023/07/06 04:06:18;;;;;;;10.73;9.27;;;;;;;14.48;91.29;100818.66;4985580;28;20230;-72
2023/07/06 04:08:45;;;;;;;9.97;8.93;;;;;;;14.50;91.16;100815.84;4986896;28;20215;-72
2023/07/06 04:11:11;;;;;;;11.60;9.87;;;;;;;14.48;91.52;100815.97;4983399;28;20258;-71
2023/07/06 04:13:37;;;;;;;10.63;9.47;;;;;;;14.50;91.48;100814.03;4984084;28;20283;-72
2023/07/06 04:16:05;;;;;;;9.30;8.33;;;;;;;14.52;91.61;100821.91;4985457;28;20692;-70
2023/07/06 04:18:33;;;;;;;10.33;8.40;;;;;;;14.53;91.39;100829.00;4983695;28;20232;-70
2023/07/06 04:21:01;;;;;;;12.27;9.90;;;;;;;14.51;91.48;100837.16;4987308;28;20220;-71
2023/07/06 04:23:27;;;;;;;12.10;8.87;;;;;;;14.50;91.48;100840.84;4983542;28;20215;-71
2023/07/06 04:25:54;;;;;;;9.67;8.23;;;;;;;14.51;91.71;100837.16;4986451;28;20223;-71
2023/07/06 04:28:20;;;;;;;10.33;9.17;;;;;;;14.51;91.67;100847.03;4986851;28;20329;-73
2023/07/06 04:30:50;;;;;;;10.40;8.67;;;;;;;14.54;91.25;100846.78;4985092;28;20236;-72
2023/07/06 04:33:19;;;;;;;11.53;8.80;;;;;;;14.55;91.35;100849.34;4987568;28;20786;-72
2023/07/06 04:35:51;;;;;;;9.63;8.67;;;;;;;14.58;91.48;100848.25;4983623;28;20204;-73
2023/07/06 04:38:19;;;;;;;10.50;8.43;;;;;;;14.60;91.04;100843.66;4980181;28;20742;-70
2023/07/06 04:40:46;;;;;;;9.33;8.43;;;;;;;14.61;91.23;100842.66;4983100;28;20236;-72
2023/07/06 04:43:13;;;;;;;10.03;8.37;;;;;;;14.64;90.97;100849.63;4973559;28;20209;-71
2023/07/06 04:45:39;;;;;;;10.00;8.30;;;;;;;14.66;91.00;100853.91;4980852;28;20212;-71
2023/07/06 04:48:07;;;;;;;9.90;7.97;;;;;;;14.71;90.96;100864.25;4982197;28;20215;-73
2023/07/06 04:50:37;;;;;;;9.33;7.63;;;;;;;14.70;90.41;100854.50;4979812;28;20231;-73
2023/07/06 04:53:07;;;;;;;9.43;7.40;;;;;;;14.72;90.52;100850.72;4982540;28;20205;-70
2023/07/06 04:55:35;;;;;;;8.17;7.37;;;;;;;14.72;90.25;100853.41;4984071;28;20209;-72
2023/07/06 04:58:05;;;;;;;8.23;7.43;;;;;;;14.72;90.01;100852.56;4985341;28;20204;-72
2023/07/06 05:00:34;;;;;;;10.10;7.37;;;;;;;14.74;89.39;100855.97;4977397;28;20608;-73
2023/07/06 05:03:02;;;;;;;8.10;6.83;;;;;;;14.73;89.08;100863.16;4982653;28;20589;-73
2023/07/06 05:05:33;;;;;;;8.67;6.80;;;;;;;14.72;89.04;100871.31;4977633;28;20204;-74
2023/07/06 05:07:59;;;;;;;8.00;6.60;;;;;;;14.73;88.72;100867.66;4983131;28;20211;-74
2023/07/06 05:10:27;;;;;;;8.20;6.80;;;;;;;14.72;88.51;100855.22;4986303;28;20242;-72
2023/07/06 05:12:56;;;;;;;8.53;6.43;;;;;;;14.73;88.34;100870.34;4978824;28;20212;-74
2023/07/06 05:15:23;;;;;;;8.57;5.77;;;;;;;14.76;88.22;100864.75;4982780;28;20734;-75
2023/07/06 05:17:49;;;;;;;7.37;5.80;;;;;;;14.80;88.17;100860.88;4981008;28;20282;-77
2023/07/06 05:20:16;;;;;;;5.67;5.17;;;;;;;14.85;88.12;100858.69;4987506;28;20207;-75
2023/07/06 05:22:43;;;;;;;6.90;5.50;;;;;;;14.92;88.59;100865.28;4983567;28;20206;-76
2023/07/06 05:25:10;;;;;;;6.67;5.70;;;;;;;15.00;88.08;100860.19;4987193;28;20687;-76
2023/07/06 05:27:37;;;;;;;7.33;5.43;;;;;;;15.06;87.18;100859.66;4984180;28;20279;-77
2023/07/06 05:30:06;;;;;;;5.83;4.90;;;;;;;15.12;87.24;100861.03;4981205;28;20688;-74
2023/07/06 05:32:33;;;;;;;6.83;5.07;;;;;;;15.18;86.83;100869.47;4982206;28;20213;-77
2023/07/06 05:34:59;;;;;;;5.97;5.17;;;;;;;15.23;86.96;100872.59;4982574;28;20211;-76
2023/07/06 05:37:26;;;;;;;5.47;4.53;;;;;;;15.34;86.75;100876.28;4984650;28;20200;-77
2023/07/06 05:39:52;;;;;;;6.33;4.77;;;;;;;15.40;86.23;100873.13;4983157;28;20211;-76
2023/07/06 05:42:19;;;;;;;8.50;5.00;;;;;;;15.48;86.11;100876.88;4986378;28;20232;-77
2023/07/06 05:44:47;;;;;;;6.10;5.00;;;;;;;15.57;85.60;100880.72;4978957;28;20216;-76
2023/07/06 05:47:14;;;;;;;7.00;4.73;;;;;;;15.65;85.12;100883.63;4984746;28;20269;-78
2023/07/06 05:49:41;;;;;;;7.97;5.17;;;;;;;15.73;84.65;100875.81;4982192;28;20216;-77
2023/07/06 05:52:08;;;;;;;7.23;4.90;;;;;;;15.84;83.68;100883.81;4984598;28;20500;-77
2023/07/06 05:54:35;;;;;;;5.67;4.57;;;;;;;15.91;83.35;100897.63;4985282;28;20662;-77
2023/07/06 05:57:02;;;;;;;5.13;4.63;;;;;;;15.99;83.20;100895.16;4985635;28;20217;-77
2023/07/06 05:59:29;;;;;;;5.00;4.43;;;;;;;16.08;82.57;100890.88;4981751;28;20276;-77
2023/07/06 06:01:57;;;;;;;6.43;4.40;;;;;;;16.17;82.16;100896.31;4983485;28;20241;-77
2023/07/06 06:04:26;;;;;;;8.50;5.03;;;;;;;16.28;81.75;100892.75;4985667;28;20222;-76
2023/07/06 06:06:55;;;;;;;5.13;4.00;;;;;;;16.40;81.45;100891.72;4981663;28;20254;-76
2023/07/06 06:09:24;;;;;;;6.57;3.90;;;;;;;16.55;81.03;100903.88;4986047;28;20213;-77
2023/07/06 06:11:51;;;;;;;7.87;3.70;;;;;;;16.69;79.97;100904.56;4982486;28;20241;-78
2023/07/06 06:14:18;;;;;;;5.93;4.07;;;;;;;16.80;79.10;100902.69;4985602;28;20303;-77
2023/07/06 06:16:45;;;;;;;4.73;4.33;;;;;;;16.86;77.45;100907.53;4990453;28;20354;-77
2023/07/06 06:19:11;;;;;;;6.27;4.33;;;;;;;16.96;76.57;100911.16;4986010;28;20224;-77
2023/07/06 06:21:39;;;;;;;4.53;3.80;;;;;;;17.06;76.29;100913.03;4990993;28;20235;-78
2023/07/06 06:24:08;;;;;;;5.60;4.30;;;;;;;17.15;75.56;100915.81;4983940;28;20209;-77
2023/07/06 06:26:35;;;;;;;4.63;3.90;;;;;;;17.23;74.58;100921.34;4991164;28;20299;-76
2023/07/06 06:29:01;;;;;;;3.80;3.47;;;;;;;17.37;75.02;100922.00;4986652;28;20211;-77
2023/07/06 06:31:28;;;;;;;5.10;3.43;;;;;;;17.53;74.09;100931.31;4989578;28;20231;-78
2023/07/06 06:33:55;;;;;;;6.30;3.80;;;;;;;17.65;73.59;100932.09;4989591;28;20203;-77
2023/07/06 06:36:22;;;;;;;5.37;3.93;;;;;;;17.76;72.62;100931.97;4993288;28;20216;-77
2023/07/06 06:38:50;;;;;;;5.30;3.33;;;;;;;17.86;72.23;100938.25;4988560;28;20210;-78
2023/07/06 06:41:17;;;;;;;6.20;3.77;;;;;;;17.99;71.75;100944.25;4991007;28;20236;-78
2023/07/06 06:43:44;;;;;;;4.53;4.03;;;;;;;18.12;71.10;100948.53;4988584;28;20709;-77
2023/07/06 06:46:12;;;;;;;4.60;3.50;;;;;;;18.25;70.76;100944.59;4989375;28;20249;-77
2023/07/06 06:48:39;;;;;;;8.37;3.83;;;;;;;18.36;69.71;100946.31;4987609;28;20235;-75
2023/07/06 06:51:07;;;;;;;4.20;3.30;;;;;;;18.46;69.71;100952.56;4989790;28;20242;-75
2023/07/06 06:53:37;;;;;;;7.20;4.20;;;;;;;18.60;69.19;100957.59;4990727;28;20210;-75
2023/07/06 06:56:07;;;;;;;7.00;3.50;;;;;;;18.66;68.19;100954.31;4987039;28;20224;-73
2023/07/06 06:58:33;;;;;;;6.50;3.30;;;;;;;18.78;68.41;100946.09;4988434;28;20338;-74
2023/07/06 07:01:02;;;;;;;6.73;3.70;;;;;;;18.94;67.88;100946.34;4988904;28;20249;-74
2023/07/06 07:03:28;;;;;;;4.50;3.00;;;;;;;19.06;67.14;100953.28;4986528;28;20305;-75
2023/07/06 07:06:03;;;;;;;4.97;3.20;;;;;;;19.24;66.21;100948.00;4988246;28;20243;-75
2023/07/06 07:08:30;;;;;;;4.50;3.10;;;;;;;19.34;66.00;100952.41;4985077;28;20217;-74
2023/07/06 07:10:57;;;;;;;5.00;3.50;;;;;;;19.52;64.88;100952.53;4986655;28;20249;-73
2023/07/06 07:13:25;;;;;;;4.70;3.00;;;;;;;19.67;63.83;100959.16;4988156;28;21054;-74
2023/07/06 07:15:53;;;;;;;4.57;2.90;;;;;;;19.75;65.24;100950.28;4985524;28;20223;-74
2023/07/06 07:18:21;;;;;;;4.23;2.73;;;;;;;19.92;64.79;100954.03;4989798;28;20213;-75
2023/07/06 07:20:51;;;;;;;3.33;2.60;;;;;;;20.05;61.80;100955.41;4991573;28;20232;-75
2023/07/06 07:23:18;;;;;;;4.90;2.70;;;;;;;20.16;62.41;100954.34;4990131;28;20263;-75
2023/07/06 07:25:44;;;;;;;4.80;3.00;;;;;;;20.27;61.43;100961.38;4989687;28;20212;-75
2023/07/06 07:28:11;;;;;;;3.73;3.17;;;;;;;20.39;61.08;100955.66;4987326;28;20918;-73
2023/07/06 07:30:40;;;;;;;7.63;2.93;;;;;;;20.46;60.09;100953.16;4982945;28;20327;-75
2023/07/06 07:33:06;;;;;;;6.43;3.10;;;;;;;20.51;59.67;100950.88;4986640;28;20222;-75
2023/07/06 07:35:33;;;;;;;3.97;2.33;;;;;;;20.53;59.45;100954.28;4982557;28;20209;-75
2023/07/06 07:37:59;;;;;;;5.70;2.53;;;;;;;20.58;59.57;100956.53;4987906;28;20214;-75
2023/07/06 07:40:26;;;;;;;5.53;3.07;;;;;;;20.64;59.89;100955.88;4980258;28;20209;-74
2023/07/06 07:42:52;;;;;;;6.00;3.00;;;;;;;20.68;59.08;100951.88;4987327;28;20209;-75
2023/07/06 07:45:19;;;;;;;7.03;2.77;;;;;;;20.74;59.49;100957.53;4987870;28;20207;-75
2023/07/06 07:47:47;;;;;;;4.40;2.80;;;;;;;20.81;58.74;100949.59;4984813;28;20205;-75
2023/07/06 07:50:14;;;;;;;5.55;2.95;;;;;;;20.85;58.10;100959.13;4984586;28;20233;-75
2023/07/06 07:52:41;;;;;;;4.70;3.10;;;;;;;20.92;58.73;100956.66;4986083;28;20585;-75
2023/07/06 07:55:09;;;;;;;5.25;2.90;;;;;;;21.04;58.13;100958.94;4985411;28;20214;-75
2023/07/06 07:57:37;;;;;;;5.38;2.88;;;;;;;21.11;57.38;100953.78;4983710;28;20696;-75
2023/07/06 08:00:06;;;;;;;5.00;3.17;;;;;;;21.22;57.11;100952.69;4984115;28;20254;-74
2023/07/06 08:02:33;;;;;;;5.85;2.75;;;;;;;21.31;56.96;100959.88;4984734;28;20200;-73
2023/07/06 08:05:03;;;;;;;3.88;2.63;;;;;;;21.43;55.42;100950.47;4984215;28;20578;-75
2023/07/06 08:07:31;;;;;;;4.20;2.70;;;;;;;21.51;56.68;100960.47;4988115;28;20608;-73
2023/07/06 08:09:57;;;;;;;4.97;2.95;;;;;;;21.65;55.11;100957.19;4988929;28;20215;-75
2023/07/06 08:12:24;;;;;;;3.80;2.70;;;;;;;21.76;54.50;100960.47;4987023;28;20249;-74
2023/07/06 08:14:50;;;;;;;4.22;2.70;;;;;;;21.89;53.70;100962.72;4987349;28;20207;-74
2023/07/06 08:17:17;;;;;;;6.30;3.08;;;;;;;22.01;53.05;100964.19;4989807;28;20215;-74
2023/07/06 08:19:45;;;;;;;4.55;2.85;;;;;;;22.11;52.57;100970.31;4985196;28;20235;-74
2023/07/06 08:22:13;;;;;;;4.43;2.70;;;;;;;22.13;51.57;100962.84;4989416;28;20435;-74
2023/07/06 08:24:39;;;;;;;4.55;2.58;;;;;;;22.14;51.53;100967.28;4988793;28;20208;-74
2023/07/06 08:27:06;;;;;;;4.55;2.60;;;;;;;22.10;51.64;100963.19;4988742;28;20282;-73
2023/07/06 08:29:33;;;;;;;2.92;2.35;;;;;;;22.06;51.89;100966.38;4986998;28;20203;-74
2023/07/06 08:31:59;;;;;;;6.32;2.72;;;;;;;22.00;52.48;100965.19;4987570;28;20256;-74
2023/07/06 08:34:26;;;;;;;3.75;2.83;;;;;;;21.97;52.86;100968.19;4984685;28;20238;-74
2023/07/06 08:36:53;;;;;;;3.90;2.70;;;;;;;21.91;52.63;100976.97;4987629;28;20210;-74
2023/07/06 08:39:21;;;;;;;6.38;2.80;;;;;;;21.86;52.94;100981.16;4986396;28;20230;-74
2023/07/06 08:41:48;;;;;;;5.15;2.55;;;;;;;21.79;53.14;100975.56;4983903;28;20223;-74
2023/07/06 08:44:17;;;;;;;4.13;2.10;;;;;;;21.71;53.16;100979.06;4983182;28;20230;-73
2023/07/06 08:46:47;;;;;;;4.85;2.10;;;;;;;21.63;53.42;100976.31;4985068;28;20203;-74
2023/07/06 08:49:23;;;;;;;5.28;2.40;;;;;;;21.58;53.84;100983.22;4985239;28;20211;-73
2023/07/06 08:51:52;;;;;;;5.38;2.00;;;;;;;21.54;53.85;100981.84;4984495;28;20242;-74
2023/07/06 08:54:23;;;;;;;5.55;2.38;;;;;;;21.47;53.56;100978.94;4985496;28;20242;-73
2023/07/06 08:56:51;;;;;;;5.70;2.05;;;;;;;21.42;54.02;100978.56;4982837;28;20211;-74
2023/07/06 08:59:32;;;;;;;4.13;1.85;;;;;;;21.35;53.54;100981.03;4985141;28;20211;-73
2023/07/06 09:01:59;;;;;;;5.75;2.00;;;;;;;21.29;53.62;100984.41;4983541;28;20239;-74
2023/07/06 09:04:27;;;;;;;4.07;2.00;;;;;;;21.24;53.60;100986.72;4982046;28;20737;-73
2023/07/06 09:06:57;;;;;;;3.10;1.88;;;;;;;21.20;53.46;100989.91;4982775;28;20756;-74
2023/07/06 09:09:26;;;;;;;3.20;1.77;;;;;;;21.14;52.99;100984.06;4987886;28;20222;-74
2023/07/06 09:11:53;;;;;;;4.50;1.98;;;;;;;21.08;52.79;100992.00;4984906;28;20258;-74
2023/07/06 09:14:24;;;;;;;2.45;1.73;;;;;;;21.01;52.65;100989.03;4982707;28;20241;-73
2023/07/06 09:16:55;;;;;;;3.47;1.80;;;;;;;20.99;52.40;100982.94;4986059;28;20202;-72
2023/07/06 09:19:23;;;;;;;3.88;1.88;;;;;;;20.99;51.78;100984.78;4984273;28;20380;-74
2023/07/06 09:21:54;;;;;;;5.65;1.75;;;;;;;21.08;52.39;100989.28;4982897;28;20315;-74
2023/07/06 09:24:27;;;;;;;2.80;1.85;;;;;;;21.25;51.90;100983.00;4981945;28;21296;-73
2023/07/06 09:26:58;;;;;;;3.78;1.70;;;;;;;21.40;51.94;100981.44;4983971;28;20682;-74
2023/07/06 09:29:31;;;;;;;6.38;1.80;;;;;;;21.56;51.55;100980.69;4987242;28;20716;-74
2023/07/06 09:32:10;;;;;;;4.13;2.00;;;;;;;21.63;50.70;100984.47;4983397;28;20238;-74
2023/07/06 09:34:36;;;;;;;3.90;1.65;;;;;;;21.68;50.65;100989.38;4977304;28;20211;-74
2023/07/06 09:37:03;;;;;;;2.80;1.50;;;;;;;21.77;50.59;100988.44;4981626;28;20245;-74
2023/07/06 09:39:30;;;;;;;3.40;1.80;;;;;;;21.83;49.35;100983.22;4987455;28;20206;-74
2023/07/06 09:42:01;;;;;;;3.60;1.48;;;;;;;21.86;48.88;100983.88;4985321;28;20238;-74
2023/07/06 09:44:30;;;;;;;3.35;1.67;;;;;;;21.86;49.42;100992.88;4984016;28;20212;-74
2023/07/06 09:46:58;;;;;;;4.75;1.80;;;;;;;21.86;49.11;100992.00;4986086;28;20211;-74
2023/07/06 09:49:31;;;;;;;3.47;1.60;;;;;;;21.83;49.33;100995.94;4986787;28;20230;-74
2023/07/06 09:52:02;;;;;;;3.25;2.03;;;;;;;21.82;49.72;100986.94;4986941;28;20231;-74
2023/07/06 09:54:36;;;;;;;2.47;1.65;;;;;;;21.85;49.53;101001.19;4990521;28;20672;-74
2023/07/06 09:57:13;;;;;;;2.30;1.30;;;;;;;21.93;49.29;100993.06;4985731;28;20238;-74
2023/07/06 09:59:43;;;;;;;2.70;1.52;;;;;;;22.00;48.52;100989.59;4988061;28;20199;-74
2023/07/06 10:02:24;;;;;;;4.20;1.50;;;;;;;22.14;48.38;100996.25;4987012;28;20231;-73
2023/07/06 10:05:01;;;;;;;2.55;1.48;;;;;;;22.21;47.14;100986.47;4989865;28;20211;-75
2023/07/06 10:07:38;;;;;;;2.15;1.15;;;;;;;22.24;46.65;100990.69;4986818;28;20835;-73
2023/07/06 10:10:11;;;;;;;2.95;1.70;;;;;;;22.22;46.76;100993.56;4978838;28;20206;-78
2023/07/06 10:12:46;;;;;;;2.05;1.40;;;;;;;22.34;47.15;100991.41;4990377;28;20712;-78
2023/07/06 10:15:21;;;;;;;2.00;1.33;;;;;;;22.49;47.50;100989.75;4991329;28;20207;-77
2023/07/06 10:17:56;;;;;;;2.60;1.40;;;;;;;22.60;46.71;100986.72;4987186;28;20214;-77
2023/07/06 10:20:29;;;;;;;2.72;1.25;;;;;;;22.65;46.18;100989.78;4986947;28;20237;-78
2023/07/06 10:23:17;;;;;;;2.45;1.30;;;;;;;22.67;46.27;100993.19;4990832;28;20203;-75
2023/07/06 10:25:51;;;;;;;1.75;1.45;;;;;;;22.67;45.75;100995.91;4987797;28;20291;-78
2023/07/06 10:28:27;;;;;;;2.53;1.40;;;;;;;22.72;45.75;100995.41;4989970;28;20805;-77
2023/07/06 10:30:57;;;;;;;3.92;1.25;;;;;;;22.76;45.71;100984.03;4989041;28;20233;-78
2023/07/06 10:33:28;;;;;;;2.28;1.30;;;;;;;22.84;45.36;100988.66;4990858;28;20250;-77
2023/07/06 10:35:58;;;;;;;1.33;1.17;;;;;;;22.87;44.07;100992.91;4986762;28;20210;-79
2023/07/06 10:38:25;;;;;;;3.08;1.33;;;;;;;22.92;43.75;100994.13;4987257;28;20213;-78
2023/07/06 10:41:12;;;;;;;1.52;1.17;;;;;;;23.01;43.35;100984.94;4987512;28;20231;-78
2023/07/06 10:43:42;;;;;;;1.88;1.13;;;;;;;23.06;42.93;100989.88;4986439;28;20199;-79
2023/07/06 10:46:27;;;;;;;2.97;1.42;;;;;;;23.08;43.11;100990.53;4984507;28;20210;-78
2023/07/06 10:48:56;;;;;;;2.33;1.30;;;;;;;23.18;43.63;100986.63;4983306;28;20204;-76
2023/07/06 10:51:24;;;;;;;3.03;1.40;;;;;;;23.27;44.22;100995.63;4985192;28;20228;-79
2023/07/06 10:54:11;;;;;;;2.22;1.40;;;;;;;23.40;43.93;100981.50;4988097;28;20237;-78
2023/07/06 10:56:41;;;;;;;1.40;1.20;;;;;;;23.52;43.71;100989.16;4984805;28;20207;-78
2023/07/06 10:59:17;;;;;;;2.13;1.20;;;;;;;23.72;43.67;100988.78;4977417;28;20204;-78
2023/07/06 11:01:45;;;;;;;2.58;1.42;;;;;;;23.92;43.42;100989.22;4982719;28;20301;-79
2023/07/06 11:04:43;;;;;;;2.13;1.30;;;;;;;24.14;43.69;100991.19;4975267;28;21123;-79
2023/07/06 11:07:11;;;;;;;3.22;1.42;;;;;;;24.29;42.88;100985.88;4984374;28;20594;-79
2023/07/06 11:09:48;;;;;;;1.83;1.33;;;;;;;24.39;43.21;100987.34;4980403;28;20219;-77
2023/07/06 11:12:19;;;;;;;1.95;1.42;;;;;;;24.55;42.50;100987.25;4984952;28;20653;-75
2023/07/06 11:15:11;;;;;;;4.18;1.50;;;;;;;24.58;41.99;100970.53;4983367;28;20239;-75
2023/07/06 11:17:47;;;;;;;2.30;1.30;;;;;;;24.60;41.58;100992.16;4980887;28;20210;-76
2023/07/06 11:20:18;;;;;;;2.15;1.30;;;;;;;24.57;40.38;100993.34;4979794;28;20207;-74
2023/07/06 11:22:50;;;;;;;2.10;1.10;;;;;;;24.50;40.74;100988.81;4981720;28;20598;-76
2023/07/06 11:25:17;;;;;;;2.22;0.80;;;;;;;24.50;40.84;100997.84;4980581;28;20217;-75
2023/07/06 11:27:46;;;;;;;1.20;0.90;;;;;;;24.52;40.17;100994.94;4980707;28;20222;-77
2023/07/06 11:30:17;;;;;;;1.83;1.20;;;;;;;24.48;39.38;100996.31;4985933;28;20589;-74
2023/07/06 11:33:01;;;;;;;2.58;1.40;;;;;;;24.48;39.76;100994.44;4986042;28;20326;-75
2023/07/06 11:35:39;;;;;;;2.83;1.23;;;;;;;24.50;40.10;100988.81;4978996;28;20211;-76